LSZA METAR and TAF | Updated Today

LSZA METAR

Lugano Airport

Observation time: 28 min. ago

LSZA 292120Z AUTO VRB02KT 9999 NCD 12/11 Q1002

Need help? Read our tutorial on how to read METARs or read the parsed version below.

Lugano Airport (LSZA) METAR

  • Weather conditions on Thu, 29 Sep 2022 21:20:00 +0000 (28 min. ago):
  • Present conditions: Dry
  • Clouds: Nil cloud detected
  • Visibility: Greater than 10 km
  • Wind: Variable at 2 knots
  • Temperature: 12 celsius
  • Dew point: 11 celsius
  • Pressure: 1002 millibars
  • Remarks: None


Useful to know...

LSZA TAF

Lugano Airport

TAF LSZA 291425Z 2915/2924 02004KT 9999 SCT040 BKN050 TEMPO 2915/2924 SHRA FEW030TCU PROB30 TEMPO 2915/2924 4000 TSRA SCT040CB
Observation time: 7:23 hr. ago
Need help? Read our tutorial on how to read TAFs or read the parsed version below.

Parsed version of TAF for Lugano Airport (LSZA)

  • From 29 September at 15:00 UTC, to day 29 of the month at 24:00 UTC
  • Clouds: Scattered at 1219 meters; broken sky at 1524 meters
  • Visibility: Greater than 10 km
  • Wind: 20 degrees at 4
  • Expected to arise temporarily, from 29 September at 15:00 UTC, to day 29 of the month at 24:00 UTC
  • Clouds: A few at 914 meters, towering cumulus
  • Expected to arise temporarily, from 29 September at 15:00 UTC, to day 29 of the month at 24:00 UTC
    Probability of 30%
  • Clouds: Scattered at 1219 meters, cumulonimbus
  • Visibility: 4000 meters
  • Other: Thunderstorms rain